createdAt,value
2019-01-12T00:00:39.480Z,26.87
2019-01-12T00:03:10.340Z,41.67
2019-01-12T00:05:41.372Z,30.13
2019-01-12T00:08:12.237Z,29.20
2019-01-12T00:10:43.624Z,31.17
2019-01-12T00:13:14.495Z,41.23
2019-01-12T00:15:45.221Z,32.00
2019-01-12T00:18:16.540Z,23.63
2019-01-12T00:20:47.327Z,36.87
2019-01-12T00:23:18.824Z,28.77
2019-01-12T00:25:49.602Z,35.30
2019-01-12T00:28:20.546Z,31.87
2019-01-12T00:30:51.490Z,24.63
2019-01-12T00:33:22.423Z,36.47
2019-01-12T00:35:53.286Z,22.13
2019-01-12T00:38:24.076Z,32.57
2019-01-12T00:40:54.895Z,29.03
2019-01-12T00:43:26.346Z,26.80
2019-01-12T00:45:57.308Z,25.93
2019-01-12T00:48:28.198Z,28.77
2019-01-12T00:50:58.980Z,26.10
2019-01-12T00:53:29.722Z,24.73
2019-01-12T00:56:00.492Z,19.40
2019-01-12T00:58:31.751Z,24.30
2019-01-12T01:01:02.770Z,29.43
2019-01-12T01:03:33.766Z,23.37
2019-01-12T01:06:05.046Z,22.73
2019-01-12T01:08:35.951Z,21.63
2019-01-12T01:11:06.817Z,30.63
2019-01-12T01:13:37.762Z,27.20
2019-01-12T01:16:08.626Z,19.83
2019-01-12T01:18:39.874Z,29.77
2019-01-12T01:21:11.016Z,29.93
2019-01-12T01:23:43.098Z,20.07
2019-01-12T01:26:13.909Z,27.87
2019-01-12T01:28:44.829Z,33.20
2019-01-12T01:31:16.001Z,18.57
2019-01-12T01:33:46.925Z,23.30
2019-01-12T01:36:17.833Z,26.53
2019-01-12T01:38:48.650Z,29.63
2019-01-12T01:41:19.416Z,24.10
2019-01-12T01:43:50.517Z,16.07
2019-01-12T01:46:21.467Z,25.60
2019-01-12T01:48:52.515Z,28.20
2019-01-12T01:51:23.696Z,24.87
2019-01-12T01:53:54.514Z,28.20
2019-01-12T01:56:25.513Z,26.13
2019-01-12T01:58:56.571Z,22.30
2019-01-12T02:01:27.403Z,27.57
2019-01-12T02:03:58.289Z,33.60
2019-01-12T02:06:29.545Z,22.73
2019-01-12T02:09:01.307Z,30.50
2019-01-12T02:11:32.589Z,24.47
2019-01-12T02:14:03.595Z,29.60
2019-01-12T02:16:34.387Z,37.53
2019-01-12T02:19:05.337Z,24.00
2019-01-12T02:21:36.227Z,22.30
2019-01-12T02:24:07.333Z,29.20
2019-01-12T02:26:38.227Z,15.20
2019-01-12T02:29:09.129Z,17.07
2019-01-12T02:31:40.043Z,28.53
2019-01-12T02:34:11.067Z,22.03
2019-01-12T02:36:41.920Z,22.00
2019-01-12T02:39:13.079Z,33.23
2019-01-12T02:41:44.150Z,18.17
2019-01-12T02:44:14.928Z,12.87
2019-01-12T02:46:45.828Z,17.83
2019-01-12T02:49:16.694Z,22.53
2019-01-12T02:51:47.545Z,24.83
2019-01-12T02:54:18.416Z,14.53
2019-01-12T02:56:49.653Z,15.30
2019-01-12T02:59:20.898Z,12.50
2019-01-12T03:01:52.241Z,21.33
2019-01-12T03:04:23.005Z,31.83
2019-01-12T03:06:53.836Z,19.30
2019-01-12T03:09:24.800Z,23.07
2019-01-12T03:11:55.608Z,27.30
2019-01-12T03:14:26.713Z,20.40
2019-01-12T03:16:57.848Z,27.27
2019-01-12T03:19:29.022Z,12.63
2019-01-12T03:22:00.668Z,19.63
2019-01-12T03:24:31.605Z,20.70
2019-01-12T03:27:02.553Z,15.23
2019-01-12T03:29:33.416Z,20.57
2019-01-12T03:32:04.735Z,29.33
2019-01-12T03:34:35.547Z,21.40
2019-01-12T03:37:06.354Z,17.90
2019-01-12T03:39:37.612Z,26.73
2019-01-12T03:42:08.414Z,18.20
2019-01-12T03:44:39.868Z,32.27
2019-01-12T03:47:10.731Z,19.60
2019-01-12T03:49:41.529Z,14.70
2019-01-12T03:52:12.216Z,19.53
2019-01-12T03:54:42.767Z,11.83
2019-01-12T03:57:13.844Z,13.43
2019-01-12T03:59:44.428Z,25.13
2019-01-12T04:02:15.177Z,19.50
2019-01-12T04:04:46.136Z,11.47
2019-01-12T04:07:16.972Z,12.67
2019-01-12T04:09:47.756Z,17.50
2019-01-12T04:12:19.131Z,9.93
2019-01-12T04:14:50.478Z,15.17
2019-01-12T04:17:21.194Z,12.40
2019-01-12T04:19:51.964Z,7.20
2019-01-12T04:22:22.992Z,17.17
2019-01-12T04:24:54.224Z,6.63
2019-01-12T04:27:25.032Z,5.60
2019-01-12T04:29:55.968Z,5.17
2019-01-12T04:32:26.918Z,6.10
2019-01-12T04:34:57.805Z,6.90
2019-01-12T04:37:28.898Z,9.60
2019-01-12T04:39:59.745Z,9.33
2019-01-12T04:42:31.340Z,6.37
2019-01-12T04:45:02.192Z,8.97
2019-01-12T04:47:33.263Z,7.87
2019-01-12T04:50:04.851Z,7.23
2019-01-12T04:52:35.989Z,7.10
2019-01-12T04:55:08.058Z,12.53
2019-01-12T04:57:39.279Z,7.47
2019-01-12T05:00:15.065Z,9.10
2019-01-12T05:02:45.858Z,3.53
2019-01-12T05:05:16.589Z,10.30
2019-01-12T05:07:47.318Z,5.83
2019-01-12T05:10:18.318Z,4.83
2019-01-12T05:12:49.400Z,3.83
2019-01-12T05:15:20.098Z,4.33
2019-01-12T05:17:51.195Z,5.63
2019-01-12T05:20:23.002Z,8.43
2019-01-12T05:22:54.146Z,4.30
2019-01-12T05:25:25.248Z,7.70
2019-01-12T05:27:56.116Z,7.20
2019-01-12T05:30:27.416Z,3.70
2019-01-12T05:32:58.245Z,2.70
2019-01-12T05:35:29.878Z,2.53
2019-01-12T05:38:01.080Z,6.20
2019-01-12T05:40:31.764Z,3.40
2019-01-12T05:43:02.773Z,3.60
2019-01-12T05:45:33.552Z,9.60
2019-01-12T05:48:04.701Z,6.70
2019-01-12T05:50:35.643Z,5.30
2019-01-12T05:53:06.990Z,9.03
2019-01-12T05:55:37.874Z,6.90
2019-01-12T05:58:08.881Z,9.67
2019-01-12T06:00:39.760Z,7.63
2019-01-12T06:03:10.694Z,2.60
2019-01-12T06:05:41.504Z,3.83
2019-01-12T06:08:12.473Z,5.67
2019-01-12T06:10:43.647Z,7.20
2019-01-12T06:13:14.315Z,5.53
2019-01-12T06:15:45.209Z,4.93
2019-01-12T06:18:16.474Z,6.67
2019-01-12T06:20:47.290Z,3.13
2019-01-12T06:23:18.572Z,5.43
2019-01-12T06:25:49.389Z,5.50
2019-01-12T06:28:20.281Z,5.73
2019-01-12T06:30:50.979Z,2.33
2019-01-12T06:33:21.756Z,5.50
2019-01-12T06:35:52.507Z,10.03
2019-01-12T06:38:23.457Z,1.93
2019-01-12T06:40:54.400Z,2.70
2019-01-12T06:43:25.287Z,2.80
2019-01-12T06:45:56.036Z,3.10
2019-01-12T06:48:27.346Z,6.93
2019-01-12T06:50:58.203Z,5.30
2019-01-12T06:53:29.086Z,4.60
2019-01-12T06:56:02.951Z,3.67
2019-01-12T06:58:37.559Z,3.33
2019-01-12T07:01:08.591Z,2.43
2019-01-12T07:03:39.300Z,8.60
2019-01-12T07:06:09.902Z,3.43
2019-01-12T07:08:40.817Z,2.80
2019-01-12T07:11:11.603Z,6.03
2019-01-12T07:13:42.578Z,13.40
2019-01-12T07:16:13.433Z,4.20
2019-01-12T07:18:44.310Z,5.70
2019-01-12T07:21:15.155Z,4.83
2019-01-12T07:23:46.151Z,3.03
2019-01-12T07:26:17.587Z,8.73
2019-01-12T07:28:48.678Z,4.93
2019-01-12T07:31:19.511Z,5.67
2019-01-12T07:33:50.097Z,3.90
2019-01-12T07:36:21.190Z,7.90
2019-01-12T07:38:52.182Z,4.30
2019-01-12T07:41:23.078Z,7.30
2019-01-12T07:43:53.853Z,9.90
2019-01-12T07:46:25.376Z,8.33
2019-01-12T07:48:56.345Z,12.53
2019-01-12T07:51:27.120Z,5.70
2019-01-12T07:53:58.296Z,4.50
2019-01-12T07:56:29.011Z,5.97
2019-01-12T07:59:01.551Z,2.30
2019-01-12T08:01:34.781Z,4.97
2019-01-12T08:04:06.450Z,6.63
2019-01-12T08:06:37.376Z,5.07
2019-01-12T08:09:09.675Z,9.50
2019-01-12T08:11:41.118Z,6.90
2019-01-12T08:14:12.127Z,10.80
2019-01-12T08:16:42.915Z,11.47
2019-01-12T08:19:13.905Z,10.80
2019-01-12T08:21:45.175Z,9.60
2019-01-12T08:24:16.001Z,6.50
2019-01-12T08:26:48.517Z,8.80
2019-01-12T08:29:19.320Z,7.67
2019-01-12T08:31:50.456Z,5.33
2019-01-12T08:34:21.380Z,4.37
2019-01-12T08:36:52.285Z,4.70
2019-01-12T08:39:23.326Z,8.57
2019-01-12T08:41:54.741Z,3.87
2019-01-12T08:44:25.755Z,8.63
2019-01-12T08:46:56.736Z,5.63
2019-01-12T08:49:27.952Z,4.97
2019-01-12T08:51:58.768Z,4.80
2019-01-12T08:54:29.665Z,3.90
2019-01-12T08:57:00.975Z,6.00
2019-01-12T08:59:31.751Z,3.20
2019-01-12T09:02:03.182Z,6.97
2019-01-12T09:04:34.382Z,12.20
2019-01-12T09:07:04.974Z,7.80
2019-01-12T09:09:36.170Z,4.37
2019-01-12T09:12:07.530Z,5.90
2019-01-12T09:14:38.561Z,5.67
2019-01-12T09:17:09.450Z,7.53
2019-01-12T09:19:40.032Z,7.40
2019-01-12T09:22:11.271Z,6.93
2019-01-12T09:24:42.421Z,5.87
2019-01-12T09:27:13.665Z,12.70
2019-01-12T09:29:44.467Z,5.17
2019-01-12T09:32:16.027Z,3.47
2019-01-12T09:34:47.299Z,8.43
2019-01-12T09:37:18.153Z,8.13
2019-01-12T09:39:49.060Z,3.20
2019-01-12T09:42:20.275Z,4.63
2019-01-12T09:44:51.264Z,12.53
2019-01-12T09:47:22.160Z,10.33
2019-01-12T09:49:53.067Z,14.43
2019-01-12T09:52:23.939Z,8.37
2019-01-12T09:54:55.198Z,3.90
2019-01-12T09:57:26.056Z,10.50
2019-01-12T09:59:57.177Z,4.73
2019-01-12T10:02:28.132Z,4.73
2019-01-12T10:04:59.142Z,5.10
2019-01-12T10:07:29.866Z,3.63
2019-01-12T10:10:00.842Z,5.13
2019-01-12T10:12:32.176Z,11.07
2019-01-12T10:15:02.999Z,4.57
2019-01-12T10:17:33.904Z,5.87
2019-01-12T10:20:06.730Z,5.37
2019-01-12T10:22:37.795Z,4.77
2019-01-12T10:25:10.783Z,10.57
2019-01-12T10:27:41.919Z,3.97
2019-01-12T10:30:17.635Z,4.07
2019-01-12T10:32:48.773Z,9.17
2019-01-12T10:35:20.065Z,6.47
2019-01-12T10:37:50.867Z,11.73
2019-01-12T10:40:21.872Z,5.17
2019-01-12T10:42:53.095Z,7.97
2019-01-12T10:45:23.944Z,7.80
2019-01-12T11:39:45.783Z,6.10
2019-01-12T11:42:17.234Z,3.10
2019-01-12T11:44:47.995Z,3.10
2019-01-12T11:47:18.989Z,2.60
2019-01-12T11:49:50.593Z,4.40
2019-01-12T11:52:21.491Z,4.40
2019-01-12T11:54:52.746Z,3.17
2019-01-12T11:57:23.613Z,2.83
2019-01-12T11:59:56.194Z,30.20
2019-01-12T12:02:37.565Z,23.40
2019-01-12T12:05:08.746Z,17.13
2019-01-12T12:07:40.505Z,25.03
2019-01-12T12:10:13.531Z,24.80
2019-01-12T12:12:44.445Z,23.50
2019-01-12T12:15:16.962Z,19.90
2019-01-12T12:17:47.872Z,20.40
2019-01-12T12:20:21.357Z,22.00
2019-01-12T12:22:52.894Z,18.20
2019-01-12T12:25:24.085Z,18.13
2019-01-12T12:27:54.943Z,16.87
2019-01-12T12:30:28.118Z,15.60
2019-01-12T12:32:59.199Z,18.33
2019-01-12T12:35:30.040Z,13.73
2019-01-12T12:38:00.759Z,13.23
2019-01-12T12:40:31.890Z,13.10
2019-01-12T12:43:03.011Z,11.13
2019-01-12T12:45:33.758Z,14.23
2019-01-12T12:48:04.876Z,11.73
2019-01-12T12:50:37.454Z,17.77
2019-01-12T12:53:08.298Z,14.40
2019-01-12T12:55:39.739Z,16.07
2019-01-12T12:58:10.656Z,12.27
2019-01-12T13:00:41.531Z,17.80
2019-01-12T13:03:12.317Z,20.83
2019-01-12T13:05:43.133Z,6.83
2019-01-12T13:08:14.315Z,12.10
2019-01-12T13:10:45.218Z,11.63
2019-01-12T13:13:24.639Z,9.10
2019-01-12T13:15:55.637Z,13.40
2019-01-12T13:18:26.496Z,8.60
2019-01-12T13:20:57.724Z,5.70
2019-01-12T13:23:28.525Z,18.27
2019-01-12T13:25:59.445Z,9.57
2019-01-12T13:28:30.449Z,17.53
2019-01-12T13:31:07.213Z,11.27
2019-01-12T13:33:38.013Z,14.60
2019-01-12T13:36:10.174Z,17.00
2019-01-12T13:38:41.240Z,18.27
2019-01-12T13:41:12.396Z,9.83
2019-01-12T13:43:43.215Z,10.30
2019-01-12T13:46:14.428Z,16.70
2019-01-12T13:48:45.361Z,14.30
2019-01-12T13:51:16.717Z,11.73
2019-01-12T13:53:47.770Z,8.90
2019-01-12T13:56:19.787Z,15.67
2019-01-12T13:58:51.013Z,13.20
2019-01-12T14:01:21.898Z,18.83
2019-01-12T14:03:53.233Z,21.10
2019-01-12T14:06:24.075Z,24.17
2019-01-12T14:08:54.836Z,27.50
2019-01-12T14:11:25.893Z,20.70
2019-01-12T14:13:56.695Z,22.17
2019-01-12T14:16:27.797Z,13.60
2019-01-12T14:19:00.890Z,18.40
2019-01-12T14:21:31.831Z,17.07
2019-01-12T14:24:02.978Z,15.67
2019-01-12T14:26:33.829Z,22.73
2019-01-12T14:29:04.696Z,14.30
2019-01-12T14:31:35.452Z,16.40
2019-01-12T14:34:06.244Z,21.93
2019-01-12T14:36:37.133Z,24.83
2019-01-12T14:39:10.192Z,11.80
2019-01-12T14:41:41.442Z,13.33
2019-01-12T14:44:12.725Z,23.47
2019-01-12T14:46:43.614Z,29.77
2019-01-12T14:49:14.705Z,18.43
2019-01-12T14:51:45.522Z,12.13
2019-01-12T14:54:16.525Z,18.73
2019-01-12T14:56:48.001Z,12.50
2019-01-12T14:59:18.914Z,10.93
2019-01-12T15:01:49.814Z,14.23
2019-01-12T15:04:20.839Z,10.17
2019-01-12T15:06:52.062Z,8.10
2019-01-12T15:09:22.778Z,9.53
2019-01-12T15:11:53.636Z,7.37
2019-01-12T15:14:24.874Z,6.80
2019-01-12T15:16:56.109Z,9.23
2019-01-12T15:19:26.894Z,17.03
2019-01-12T15:21:57.752Z,5.83
2019-01-12T15:24:28.597Z,9.23
2019-01-12T15:27:00.008Z,15.13
2019-01-12T15:29:31.254Z,12.40
2019-01-12T15:32:03.036Z,11.30
2019-01-12T15:34:33.944Z,15.73
2019-01-12T15:37:04.939Z,16.20
2019-01-12T15:39:35.761Z,21.03
2019-01-12T15:42:06.665Z,19.03
2019-01-12T15:44:37.504Z,16.53
2019-01-12T15:47:08.532Z,17.70
2019-01-12T15:49:39.986Z,10.97
2019-01-12T15:52:10.947Z,18.60
2019-01-12T15:54:41.925Z,17.40
2019-01-12T15:57:13.210Z,22.30
2019-01-12T15:59:44.157Z,26.13
2019-01-12T16:02:16.021Z,17.93
2019-01-12T16:04:47.335Z,17.53
2019-01-12T16:07:18.550Z,23.27
2019-01-12T16:09:49.690Z,25.40
2019-01-12T16:12:20.741Z,18.97
2019-01-12T16:14:55.108Z,22.70
2019-01-12T16:17:26.802Z,15.30
2019-01-12T16:19:57.532Z,17.23
2019-01-12T16:22:28.620Z,16.03
2019-01-12T16:24:59.409Z,25.43
2019-01-12T16:27:30.846Z,6.93
2019-01-12T16:30:01.839Z,22.43
2019-01-12T16:32:32.736Z,19.73
2019-01-12T16:35:03.946Z,23.13
2019-01-12T16:37:34.958Z,17.50
2019-01-12T16:40:09.118Z,26.50
2019-01-12T16:42:39.982Z,17.63
2019-01-12T16:45:11.797Z,26.60
2019-01-12T16:47:42.676Z,19.47
2019-01-12T16:50:13.403Z,10.20
2019-01-12T16:52:44.120Z,10.20
2019-01-12T16:55:16.872Z,21.17
2019-01-12T16:57:47.807Z,20.33
2019-01-12T17:00:20.973Z,21.10
2019-01-12T17:02:52.488Z,19.13
2019-01-12T17:05:23.561Z,10.03
2019-01-12T17:07:54.574Z,24.13
2019-01-12T17:10:25.522Z,19.17
2019-01-12T17:12:56.428Z,12.57
2019-01-12T17:15:34.311Z,26.83
2019-01-12T17:17:59.655Z,22.53
2019-01-12T17:20:30.638Z,30.97
2019-01-12T17:23:01.757Z,17.90
2019-01-12T17:25:33.030Z,30.60
2019-01-12T17:28:03.948Z,25.80
2019-01-12T17:30:34.787Z,25.20
2019-01-12T17:33:05.752Z,32.37
2019-01-12T17:35:36.942Z,37.27
2019-01-12T17:38:08.085Z,39.80
2019-01-12T17:40:38.932Z,41.80
2019-01-12T17:43:09.684Z,44.17
2019-01-12T17:45:40.665Z,32.83
2019-01-12T17:48:11.618Z,32.97
2019-01-12T17:50:42.856Z,43.23
2019-01-12T17:53:14.160Z,31.50
2019-01-12T17:55:45.348Z,25.90
2019-01-12T17:58:15.933Z,29.47
2019-01-12T18:00:48.798Z,26.97
2019-01-12T18:03:19.783Z,20.57
2019-01-12T18:05:53.568Z,25.47
2019-01-12T18:08:24.957Z,23.73
2019-01-12T18:10:55.775Z,31.87
2019-01-12T18:13:26.809Z,20.27
2019-01-12T18:15:59.942Z,15.37
2019-01-12T18:18:30.842Z,17.70
2019-01-12T18:21:02.099Z,9.03
2019-01-12T18:23:32.957Z,15.13
2019-01-12T18:26:03.811Z,13.93
2019-01-12T18:28:34.485Z,10.57
2019-01-12T18:31:05.305Z,5.37
2019-01-12T18:33:37.219Z,5.97
2019-01-12T18:36:08.281Z,8.63
2019-01-12T18:38:39.504Z,10.87
2019-01-12T18:41:12.482Z,10.87
2019-01-12T18:43:44.314Z,12.33
2019-01-12T18:46:15.234Z,8.83
2019-01-12T18:48:46.738Z,4.63
2019-01-12T18:51:20.705Z,10.53
2019-01-12T18:53:58.124Z,2.97
2019-01-12T18:56:30.008Z,8.07
2019-01-12T18:59:01.080Z,6.30
2019-01-12T19:01:32.586Z,10.60
2019-01-12T19:04:03.466Z,10.80
2019-01-12T19:06:34.355Z,6.20
2019-01-12T19:09:07.585Z,5.83
2019-01-12T19:11:38.563Z,5.53
2019-01-12T19:14:09.938Z,9.03
2019-01-12T19:16:41.194Z,5.00
2019-01-12T19:19:12.034Z,6.23
2019-01-12T19:21:42.929Z,6.60
2019-01-12T19:24:14.411Z,14.23
2019-01-12T19:26:46.461Z,15.30
2019-01-12T19:29:17.549Z,10.47
2019-01-12T19:31:48.654Z,8.63
2019-01-12T19:34:19.906Z,11.00
2019-01-12T19:36:51.407Z,10.47
2019-01-12T19:39:22.610Z,12.90
2019-01-12T19:41:53.558Z,14.73
2019-01-12T19:44:24.635Z,17.20
2019-01-12T19:46:55.724Z,9.73
2019-01-12T19:49:26.670Z,16.53
2019-01-12T19:51:57.767Z,7.60
2019-01-12T19:54:29.475Z,23.27
2019-01-12T19:57:00.507Z,6.60
2019-01-12T19:59:31.344Z,10.87
2019-01-12T20:02:05.859Z,12.13
2019-01-12T20:04:43.414Z,8.07
2019-01-12T20:07:14.971Z,17.17
2019-01-12T20:09:46.320Z,11.63
2019-01-12T20:12:17.335Z,15.13
2019-01-12T20:14:48.498Z,22.47
2019-01-12T20:17:19.590Z,9.27
2019-01-12T20:19:50.837Z,10.33
2019-01-12T20:22:22.034Z,14.37
2019-01-12T20:24:54.174Z,7.67
2019-01-12T20:27:25.054Z,12.10
2019-01-12T20:29:57.713Z,14.13
2019-01-12T20:32:44.533Z,15.00
2019-01-12T20:35:27.250Z,17.93
2019-01-12T20:38:15.901Z,14.13
2019-01-12T20:40:55.391Z,27.43
2019-01-12T20:43:37.952Z,17.40
2019-01-12T20:46:12.125Z,15.87
2019-01-12T20:48:59.116Z,11.83
2019-01-12T20:51:35.787Z,13.07
2019-01-12T20:54:12.778Z,19.30
2019-01-12T20:56:55.392Z,20.07
2019-01-12T20:59:28.942Z,15.93
2019-01-12T21:02:26.817Z,12.73
2019-01-12T21:05:15.680Z,14.87
2019-01-12T21:07:55.567Z,17.73
2019-01-12T21:10:34.726Z,13.10
2019-01-12T21:13:32.233Z,9.73
2019-01-12T21:16:06.850Z,17.37
2019-01-12T21:18:38.019Z,18.30
2019-01-12T21:21:09.386Z,13.40
2019-01-12T21:23:41.508Z,21.63
2019-01-12T21:26:13.196Z,7.40
2019-01-12T21:28:44.342Z,18.77
2019-01-12T21:31:15.283Z,16.97
2019-01-12T21:33:46.050Z,14.67
2019-01-12T21:36:16.857Z,12.80
2019-01-12T21:38:48.304Z,14.50
2019-01-12T21:41:19.444Z,16.83
2019-01-12T21:43:50.281Z,11.23
2019-01-12T21:46:21.210Z,14.30
2019-01-12T21:48:52.231Z,11.87
2019-01-12T21:51:23.974Z,14.80
2019-01-12T21:53:54.760Z,11.63
2019-01-12T21:56:25.661Z,16.30
2019-01-12T21:58:56.786Z,14.63
2019-01-12T22:01:28.402Z,9.73
2019-01-12T22:03:59.287Z,16.43
2019-01-12T22:06:30.097Z,9.90
2019-01-12T22:09:00.889Z,8.10
2019-01-12T22:11:31.794Z,8.97
2019-01-12T22:14:03.161Z,8.67
2019-01-12T22:16:34.063Z,10.80
2019-01-12T22:19:05.567Z,11.43
2019-01-12T22:21:36.350Z,14.40
2019-01-12T22:24:07.650Z,11.67
2019-01-12T22:26:38.903Z,13.40
2019-01-12T22:29:10.482Z,15.10
2019-01-12T22:31:45.192Z,12.87
2019-01-12T22:34:16.928Z,15.70
2019-01-12T22:36:48.008Z,14.83
2019-01-12T22:39:21.356Z,13.73
2019-01-12T22:41:54.257Z,22.57
2019-01-12T22:44:25.442Z,13.50
2019-01-12T22:46:57.859Z,16.10
2019-01-12T22:49:28.812Z,10.60
2019-01-12T22:52:00.115Z,18.43
2019-01-12T22:54:32.517Z,17.90
2019-01-12T22:57:03.820Z,19.83
2019-01-12T22:59:34.957Z,16.17
2019-01-12T23:02:06.689Z,10.70
2019-01-12T23:04:37.563Z,24.03
2019-01-12T23:07:11.673Z,11.87
2019-01-12T23:09:41.386Z,14.30
2019-01-12T23:12:12.221Z,21.60
2019-01-12T23:14:43.222Z,17.97
2019-01-12T23:17:14.099Z,12.73
2019-01-12T23:19:44.982Z,18.10
2019-01-12T23:22:16.090Z,19.47
2019-01-12T23:24:47.056Z,12.73
2019-01-12T23:27:18.064Z,13.93
2019-01-12T23:29:48.971Z,16.97
2019-01-12T23:32:19.849Z,15.37
2019-01-12T23:34:50.948Z,10.37
2019-01-12T23:37:22.074Z,15.37
2019-01-12T23:39:53.219Z,18.07
2019-01-12T23:42:24.696Z,9.13
2019-01-12T23:44:56.043Z,29.53
2019-01-12T23:47:27.005Z,15.00
2019-01-12T23:49:57.897Z,27.00
2019-01-12T23:52:28.678Z,10.70
2019-01-12T23:55:00.130Z,11.97
2019-01-12T23:57:31.154Z,16.43
